Time;durP1;ratioP1;P1;durP2;ratioP2;P2;SDS_P1;SDS_P2;PMS_P1;PMS_P2;Temp;Humidity;BMP_temperature;BMP_pressure;BME280_temperature;BME280_humidity;BME280_pressure;Samples;Min_cycle;Max_cycle;Signal;HPM_P1;HPM_P2
2021/06/10 00:02:21;;;;;;;;;;;;;;;;;;2120295;67;1191;-69
2021/06/10 00:04:46;;;;;;;;;;;;;;;;;;2119697;67;1267;-69
2021/06/10 00:07:14;;;;;;;;;;;;;;;;;;2120123;67;1142;-69
2021/06/10 00:09:39;;;;;;;;;;;;;;;;;;2120525;67;1407;-69
2021/06/10 00:12:05;;;;;;;;;;;;;;;;;;2120594;67;1936;-69
2021/06/10 00:14:30;;;;;;;;;;;;;;;;;;2118921;67;1226;-69
2021/06/10 00:16:55;;;;;;;;;;;;;;;;;;2120906;59;1604;-69
2021/06/10 00:19:21;;;;;;;;;;;;;;;;;;2119260;59;1548;-69
2021/06/10 00:21:46;;;;;;;;;;;;;;;;;;2120209;67;1166;-69
2021/06/10 00:24:11;;;;;;;;;;;;;;;;;;2118711;67;1227;-71
2021/06/10 00:26:36;;;;;;;;;;;;;;;;;;2120103;67;1101;-69
2021/06/10 00:29:02;;;;;;;;;;;;;;;;;;2120646;59;1283;-69
2021/06/10 00:31:27;;;;;;;;;;;;;;;;;;2118873;67;1984;-69
2021/06/10 00:33:52;;;;;;;;;;;;;;;;;;2119879;67;1167;-69
2021/06/10 00:36:18;;;;;;;;;;;;;;;;;;2119826;63;1349;-69
2021/06/10 00:38:44;;;;;;;;;;;;;;;;;;2119495;67;1163;-69
2021/06/10 00:41:09;;;;;;;;;;;;;;;;;;2119413;67;1073;-69
2021/06/10 00:43:34;;;;;;;;;;;;;;;;;;2119649;67;1163;-69
2021/06/10 00:45:59;;;;;;;;;;;;;;;;;;2120000;59;1324;-69
2021/06/10 00:48:24;;;;;;;;;;;;;;;;;;2119833;67;1335;-69
2021/06/10 00:50:51;;;;;;;;;;;;;;;;;;2120144;67;1977;-70
2021/06/10 00:53:22;;;;;;;;;;;;;;;;;;2120002;67;1240;-69
2021/06/10 00:55:50;;;;;;;;;;;;;;;;;;2119660;67;1742;-69
2021/06/10 00:58:16;;;;;;;;;;;;;;;;;;2119729;67;1246;-69
2021/06/10 01:00:42;;;;;;;;;;;;;;;;;;2120147;67;1155;-69
2021/06/10 01:03:07;;;;;;;;;;;;;;;;;;2120386;67;1156;-69
2021/06/10 01:05:32;;;;;;;;;;;;;;;;;;2120570;67;1380;-69
2021/06/10 01:08:12;;;;;;;;;;;;;;;;;;2120135;59;1362;-69
2021/06/10 01:10:38;;;;;;;;;;;;;;;;;;2120034;67;2000;-69
2021/06/10 01:13:07;;;;;;;;;;;;;;;;;;2120787;67;1131;-69
2021/06/10 01:15:39;;;;;;;;;;;;;;;;;;2120986;59;1277;-68
2021/06/10 01:18:04;;;;;;;;;;;;;;;;;;2119889;67;1251;-69
2021/06/10 01:20:31;;;;;;;;;;;;;;;;;;2119620;67;1211;-69
2021/06/10 01:22:56;;;;;;;;;;;;;;;;;;2120559;67;1136;-69
2021/06/10 01:25:31;;;;;;;;;;;;;;;;;;2121547;67;1277;-69
2021/06/10 01:27:58;;;;;;;;;;;;;;;;;;2120314;67;1215;-69
2021/06/10 01:30:27;;;;;;;;;;;;;;;;;;2120517;67;1925;-69
2021/06/10 01:32:54;;;;;;;;;;;;;;;;;;2121170;67;1432;-69
2021/06/10 01:35:21;;;;;;;;;;;;;;;;;;2121378;67;1224;-69
2021/06/10 01:37:47;;;;;;;;;;;;;;;;;;2121269;67;1189;-69
2021/06/10 01:40:13;;;;;;;;;;;;;;;;;;2118991;67;1156;-69
2021/06/10 01:42:39;;;;;;;;;;;;;;;;;;2120742;67;1246;-69
2021/06/10 01:45:05;;;;;;;;;;;;;;;;;;2118890;59;1188;-69
2021/06/10 01:47:31;;;;;;;;;;;;;;;;;;2120037;67;1267;-69
2021/06/10 01:49:57;;;;;;;;;;;;;;;;;;2120881;67;1987;-69
2021/06/10 01:52:23;;;;;;;;;;;;;;;;;;2119525;67;1251;-69
2021/06/10 01:54:49;;;;;;;;;;;;;;;;;;2119496;67;1292;-68
2021/06/10 01:57:14;;;;;;;;;;;;;;;;;;2120107;67;1226;-69
2021/06/10 01:59:40;;;;;;;;;;;;;;;;;;2120481;67;1183;-69
2021/06/10 02:02:06;;;;;;;;;;;;;;;;;;2119902;67;1167;-69
2021/06/10 02:04:32;;;;;;;;;;;;;;;;;;2119892;60;1327;-69
2021/06/10 02:06:58;;;;;;;;;;;;;;;;;;2119919;67;1265;-68
2021/06/10 02:09:24;;;;;;;;;;;;;;;;;;2120081;67;1340;-69
2021/06/10 02:11:50;;;;;;;;;;;;;;;;;;2120263;67;1985;-68
2021/06/10 02:14:19;;;;;;;;;;;;;;;;;;2120559;67;1329;-71
2021/06/10 02:16:45;;;;;;;;;;;;;;;;;;2119802;59;1580;-68
2021/06/10 02:19:11;;;;;;;;;;;;;;;;;;2120491;67;1159;-68
2021/06/10 02:21:37;;;;;;;;;;;;;;;;;;2119255;67;1226;-68
2021/06/10 02:24:02;;;;;;;;;;;;;;;;;;2120918;67;1258;-68
2021/06/10 02:26:27;;;;;;;;;;;;;;;;;;2120996;67;1298;-68
2021/06/10 02:28:52;;;;;;;;;;;;;;;;;;2121826;59;1203;-68
2021/06/10 02:31:17;;;;;;;;;;;;;;;;;;2120184;59;1936;-68
2021/06/10 02:33:44;;;;;;;;;;;;;;;;;;2120085;67;1157;-68
2021/06/10 02:36:12;;;;;;;;;;;;;;;;;;2119314;67;1265;-70
2021/06/10 02:38:39;;;;;;;;;;;;;;;;;;2121217;67;1208;-68
2021/06/10 02:41:05;;;;;;;;;;;;;;;;;;2120226;67;1182;-68
2021/06/10 02:43:31;;;;;;;;;;;;;;;;;;2120034;67;1247;-68
2021/06/10 02:45:56;;;;;;;;;;;;;;;;;;2120509;59;1263;-68
2021/06/10 02:48:22;;;;;;;;;;;;;;;;;;2120285;67;1287;-68
2021/06/10 02:50:48;;;;;;;;;;;;;;;;;;2120020;67;1928;-68
2021/06/10 02:53:16;;;;;;;;;;;;;;;;;;2120576;67;1160;-68
2021/06/10 02:55:43;;;;;;;;;;;;;;;;;;2120450;67;1215;-68
2021/06/10 02:58:09;;;;;;;;;;;;;;;;;;2120289;67;1202;-68
2021/06/10 03:00:35;;;;;;;;;;;;;;;;;;2120311;67;1076;-68
2021/06/10 03:03:01;;;;;;;;;;;;;;;;;;2119639;67;1147;-68
2021/06/10 03:05:27;;;;;;;;;;;;;;;;;;2119993;67;1194;-68
2021/06/10 03:07:53;;;;;;;;;;;;;;;;;;2119924;59;1376;-68
2021/06/10 03:10:20;;;;;;;;;;;;;;;;;;2119707;67;1982;-68
2021/06/10 03:12:46;;;;;;;;;;;;;;;;;;2119386;67;1320;-68
2021/06/10 03:15:11;;;;;;;;;;;;;;;;;;2121119;59;1271;-68
2021/06/10 03:17:37;;;;;;;;;;;;;;;;;;2119879;67;1140;-68
2021/06/10 03:20:03;;;;;;;;;;;;;;;;;;2119833;67;1242;-68
2021/06/10 03:22:28;;;;;;;;;;;;;;;;;;2120391;67;1136;-68
2021/06/10 03:24:54;;;;;;;;;;;;;;;;;;2119591;67;1162;-68
2021/06/10 03:27:20;;;;;;;;;;;;;;;;;;2118979;67;1175;-68
2021/06/10 03:29:45;;;;;;;;;;;;;;;;;;2120313;67;1190;-68
2021/06/10 03:32:10;;;;;;;;;;;;;;;;;;2119635;67;1936;-68
2021/06/10 03:34:37;;;;;;;;;;;;;;;;;;2119502;67;1235;-69
2021/06/10 03:37:02;;;;;;;;;;;;;;;;;;2121598;67;1192;-68
2021/06/10 03:39:29;;;;;;;;;;;;;;;;;;2119641;67;1242;-68
2021/06/10 03:41:55;;;;;;;;;;;;;;;;;;2119738;67;1146;-68
2021/06/10 03:44:21;;;;;;;;;;;;;;;;;;2120277;59;1191;-68
2021/06/10 03:46:46;;;;;;;;;;;;;;;;;;2119781;59;1477;-71
2021/06/10 03:49:12;;;;;;;;;;;;;;;;;;2119376;67;1173;-71
2021/06/10 03:51:37;;;;;;;;;;;;;;;;;;2118840;67;1925;-71
2021/06/10 03:54:04;;;;;;;;;;;;;;;;;;2119913;67;1224;-68
2021/06/10 03:56:29;;;;;;;;;;;;;;;;;;2118979;67;1199;-68
2021/06/10 03:58:54;;;;;;;;;;;;;;;;;;2119978;67;1147;-68
2021/06/10 04:01:19;;;;;;;;;;;;;;;;;;2120125;67;1246;-71
2021/06/10 04:03:44;;;;;;;;;;;;;;;;;;2119536;67;1172;-71
2021/06/10 04:06:12;;;;;;;;;;;;;;;;;;2119996;67;1195;-71
2021/06/10 04:08:37;;;;;;;;;;;;;;;;;;2118965;67;1311;-68
2021/06/10 04:11:02;;;;;;;;;;;;;;;;;;2119470;67;1920;-71
2021/06/10 04:13:27;;;;;;;;;;;;;;;;;;2119482;59;1140;-69
2021/06/10 04:15:52;;;;;;;;;;;;;;;;;;2120897;67;1267;-69
2021/06/10 04:18:18;;;;;;;;;;;;;;;;;;2119357;59;1191;-69
2021/06/10 04:20:47;;;;;;;;;;;;;;;;;;2119127;67;941;-69
2021/06/10 04:23:12;;;;;;;;;;;;;;;;;;2120300;67;1164;-69
2021/06/10 04:25:38;;;;;;;;;;;;;;;;;;2121063;67;1199;-69
2021/06/10 04:28:03;;;;;;;;;;;;;;;;;;2119297;67;1349;-69
2021/06/10 04:30:28;;;;;;;;;;;;;;;;;;2120732;67;1928;-69
2021/06/10 04:32:54;;;;;;;;;;;;;;;;;;2119035;67;1218;-69
2021/06/10 04:35:19;;;;;;;;;;;;;;;;;;2119464;67;1273;-69
2021/06/10 04:37:44;;;;;;;;;;;;;;;;;;2120090;67;1231;-69
2021/06/10 04:40:10;;;;;;;;;;;;;;;;;;2119868;67;1239;-69
2021/06/10 04:42:35;;;;;;;;;;;;;;;;;;2120620;59;1174;-71
2021/06/10 04:45:00;;;;;;;;;;;;;;;;;;2124411;54;3517;-68
2021/06/10 04:47:26;;;;;;;;;;;;;;;;;;2126221;59;2202;-68
2021/06/10 04:49:51;;;;;;;;;;;;;;;;;;2125953;59;1168;-70
2021/06/10 04:52:16;;;;;;;;;;;;;;;;;;2124970;67;1926;-69
2021/06/10 04:54:41;;;;;;;;;;;;;;;;;;2126608;59;1547;-71
2021/06/10 04:57:06;;;;;;;;;;;;;;;;;;2126354;67;1055;-68
2021/06/10 04:59:32;;;;;;;;;;;;;;;;;;2125629;67;1230;-71
2021/06/10 05:01:57;;;;;;;;;;;;;;;;;;2126906;59;1150;-69
2021/06/10 05:04:22;;;;;;;;;;;;;;;;;;2127563;67;1219;-69
2021/06/10 05:06:49;;;;;;;;;;;;;;;;;;2126848;59;1412;-73
2021/06/10 05:09:15;;;;;;;;;;;;;;;;;;2127600;67;1172;-69
2021/06/10 05:11:40;;;;;;;;;;;;;;;;;;2126411;67;1985;-71
2021/06/10 05:14:05;;;;;;;;;;;;;;;;;;2127696;59;1170;-68
2021/06/10 05:16:30;;;;;;;;;;;;;;;;;;2126341;59;1245;-69
2021/06/10 05:18:55;;;;;;;;;;;;;;;;;;2125624;59;1200;-69
2021/06/10 05:21:21;;;;;;;;;;;;;;;;;;2126962;67;1166;-71
2021/06/10 05:23:46;;;;;;;;;;;;;;;;;;2125958;67;1328;-70
2021/06/10 05:26:11;;;;;;;;;;;;;;;;;;2126835;67;1214;-68
2021/06/10 05:28:36;;;;;;;;;;;;;;;;;;2127814;67;1369;-70
2021/06/10 05:31:03;;;;;;;;;;;;;;;;;;2124564;67;1930;-68
2021/06/10 05:33:28;;;;;;;;;;;;;;;;;;2125325;67;1835;-70
2021/06/10 05:35:53;;;;;;;;;;;;;;;;;;2125411;67;1214;-71
2021/06/10 05:38:18;;;;;;;;;;;;;;;;;;2126553;67;1155;-69
2021/06/10 05:40:43;;;;;;;;;;;;;;;;;;2126336;67;1155;-70
2021/06/10 05:43:09;;;;;;;;;;;;;;;;;;2126797;67;1238;-69
2021/06/10 05:45:35;;;;;;;;;;;;;;;;;;2126235;59;1316;-68
2021/06/10 05:48:00;;;;;;;;;;;;;;;;;;2128182;59;1286;-68
2021/06/10 05:50:25;;;;;;;;;;;;;;;;;;2127473;67;1920;-69
2021/06/10 05:52:50;;;;;;;;;;;;;;;;;;2127139;67;1207;-67
2021/06/10 05:55:16;;;;;;;;;;;;;;;;;;2127345;67;1282;-70
2021/06/10 05:57:41;;;;;;;;;;;;;;;;;;2126982;67;1163;-68
2021/06/10 06:00:07;;;;;;;;;;;;;;;;;;2127859;67;1207;-69
2021/06/10 06:02:32;;;;;;;;;;;;;;;;;;2126763;67;1116;-71
2021/06/10 06:04:57;;;;;;;;;;;;;;;;;;2127970;67;1225;-67
2021/06/10 06:07:22;;;;;;;;;;;;;;;;;;2126462;67;1159;-69
2021/06/10 06:09:48;;;;;;;;;;;;;;;;;;2125825;67;1341;-69
2021/06/10 06:12:15;;;;;;;;;;;;;;;;;;2127260;67;1943;-68
2021/06/10 06:14:42;;;;;;;;;;;;;;;;;;2126314;67;1254;-69
2021/06/10 06:17:09;;;;;;;;;;;;;;;;;;2127057;59;1563;-68
2021/06/10 06:19:35;;;;;;;;;;;;;;;;;;2126501;67;1147;-67
2021/06/10 06:22:02;;;;;;;;;;;;;;;;;;2126937;59;1241;-70
2021/06/10 06:24:28;;;;;;;;;;;;;;;;;;2126665;67;1246;-71
2021/06/10 06:26:53;;;;;;;;;;;;;;;;;;2125493;67;1584;-70
2021/06/10 06:29:19;;;;;;;;;;;;;;;;;;2126945;59;1310;-70
2021/06/10 06:31:44;;;;;;;;;;;;;;;;;;2126541;67;1982;-68
2021/06/10 06:34:09;;;;;;;;;;;;;;;;;;2128445;67;1186;-73
2021/06/10 06:36:34;;;;;;;;;;;;;;;;;;2126455;66;1198;-68
2021/06/10 06:38:59;;;;;;;;;;;;;;;;;;2126789;67;1162;-70
2021/06/10 06:41:24;;;;;;;;;;;;;;;;;;2127041;67;1243;-68
2021/06/10 06:43:50;;;;;;;;;;;;;;;;;;2126620;67;1236;-70
2021/06/10 06:46:15;;;;;;;;;;;;;;;;;;2126916;59;1571;-72
2021/06/10 06:48:40;;;;;;;;;;;;;;;;;;2126939;67;1272;-69
2021/06/10 06:51:06;;;;;;;;;;;;;;;;;;2126004;67;1918;-68
2021/06/10 06:53:32;;;;;;;;;;;;;;;;;;2127828;67;1194;-71
2021/06/10 06:55:57;;;;;;;;;;;;;;;;;;2126564;67;1344;-68
2021/06/10 06:58:22;;;;;;;;;;;;;;;;;;2126893;67;1145;-69
2021/06/10 07:00:48;;;;;;;;;;;;;;;;;;2126972;67;1183;-71
2021/06/10 07:03:13;;;;;;;;;;;;;;;;;;2127167;67;1129;-70
2021/06/10 07:05:38;;;;;;;;;;;;;;;;;;2127301;67;1261;-68
2021/06/10 07:08:03;;;;;;;;;;;;;;;;;;2127143;59;1436;-68
2021/06/10 07:10:28;;;;;;;;;;;;;;;;;;2126961;67;1918;-71
2021/06/10 07:12:54;;;;;;;;;;;;;;;;;;2127280;67;1229;-69
2021/06/10 07:15:19;;;;;;;;;;;;;;;;;;2127106;59;1242;-70
2021/06/10 07:17:44;;;;;;;;;;;;;;;;;;2127295;67;1296;-72
2021/06/10 07:20:10;;;;;;;;;;;;;;;;;;2126739;67;1234;-68
2021/06/10 07:22:38;;;;;;;;;;;;;;;;;;2127426;67;1201;-71
2021/06/10 07:25:04;;;;;;;;;;;;;;;;;;2126619;67;1181;-68
2021/06/10 07:27:29;;;;;;;;;;;;;;;;;;2127381;67;1151;-69
2021/06/10 07:29:56;;;;;;;;;;;;;;;;;;2126853;67;1309;-74
2021/06/10 07:32:22;;;;;;;;;;;;;;;;;;2126423;67;2000;-68
2021/06/10 07:34:47;;;;;;;;;;;;;;;;;;2127848;66;1257;-70
2021/06/10 07:37:12;;;;;;;;;;;;;;;;;;2125156;67;1077;-70
2021/06/10 07:39:38;;;;;;;;;;;;;;;;;;2127427;67;1158;-71
2021/06/10 07:42:03;;;;;;;;;;;;;;;;;;2126879;67;1182;-68
2021/06/10 07:44:29;;;;;;;;;;;;;;;;;;2126851;59;1226;-69
2021/06/10 07:46:54;;;;;;;;;;;;;;;;;;2125940;59;1306;-71
2021/06/10 07:49:20;;;;;;;;;;;;;;;;;;2126604;67;1284;-68
2021/06/10 07:51:45;;;;;;;;;;;;;;;;;;2126441;67;1988;-67
2021/06/10 07:54:10;;;;;;;;;;;;;;;;;;2126818;67;1198;-69
2021/06/10 07:56:35;;;;;;;;;;;;;;;;;;2126249;67;1254;-71
2021/06/10 07:59:01;;;;;;;;;;;;;;;;;;2127226;67;1157;-70
2021/06/10 08:01:26;;;;;;;;;;;;;;;;;;2125768;67;1229;-69
2021/06/10 08:03:51;;;;;;;;;;;;;;;;;;2127125;67;1151;-70
2021/06/10 08:06:16;;;;;;;;;;;;;;;;;;2125330;67;1281;-73
2021/06/10 08:08:42;;;;;;;;;;;;;;;;;;2126393;67;1289;-68
2021/06/10 08:11:09;;;;;;;;;;;;;;;;;;2129501;66;1930;-72
2021/06/10 08:13:35;;;;;;;;;;;;;;;;;;2126659;67;1127;-71
2021/06/10 08:16:00;;;;;;;;;;;;;;;;;;2126817;59;1366;-69
2021/06/10 08:18:27;;;;;;;;;;;;;;;;;;2126868;67;1187;-69
2021/06/10 08:20:52;;;;;;;;;;;;;;;;;;2126856;67;1166;-71
2021/06/10 08:23:18;;;;;;;;;;;;;;;;;;2126699;67;1076;-70
2021/06/10 08:25:44;;;;;;;;;;;;;;;;;;2126960;67;1267;-71
2021/06/10 08:28:09;;;;;;;;;;;;;;;;;;2126865;67;1202;-70
2021/06/10 08:30:35;;;;;;;;;;;;;;;;;;2126338;59;1926;-69
2021/06/10 08:33:00;;;;;;;;;;;;;;;;;;2124817;67;1176;-70
2021/06/10 08:35:25;;;;;;;;;;;;;;;;;;2126716;67;1209;-68
2021/06/10 08:37:50;;;;;;;;;;;;;;;;;;2127173;67;1047;-70
2021/06/10 08:40:16;;;;;;;;;;;;;;;;;;2126469;67;1165;-70
2021/06/10 08:42:42;;;;;;;;;;;;;;;;;;2127636;67;1367;-71
2021/06/10 08:45:19;;;;;;;;;;;;;;;;;;2126647;59;1396;-68
2021/06/10 08:47:45;;;;;;;;;;;;;;;;;;2126339;67;1130;-71
2021/06/10 08:50:12;;;;;;;;;;;;;;;;;;2126232;67;1301;-71
2021/06/10 08:52:38;;;;;;;;;;;;;;;;;;2133093;67;1992;-69
2021/06/10 08:55:03;;;;;;;;;;;;;;;;;;2126950;67;1147;-68
2021/06/10 08:57:28;;;;;;;;;;;;;;;;;;2125720;67;1146;-68
2021/06/10 08:59:54;;;;;;;;;;;;;;;;;;2126250;67;1164;-72
2021/06/10 09:02:20;;;;;;;;;;;;;;;;;;2125750;67;1186;-68
2021/06/10 09:04:45;;;;;;;;;;;;;;;;;;2126909;66;1233;-69
2021/06/10 09:07:10;;;;;;;;;;;;;;;;;;2126748;59;1296;-70
2021/06/10 09:09:39;;;;;;;;;;;;;;;;;;2125814;67;1166;-71
2021/06/10 09:12:07;;;;;;;;;;;;;;;;;;2125831;67;1913;-69
2021/06/10 09:14:52;;;;;;;;;;;;;;;;;;2126802;67;1179;-70
2021/06/10 09:17:34;;;;;;;;;;;;;;;;;;2127260;67;1126;-68
2021/06/10 09:19:59;;;;;;;;;;;;;;;;;;2126428;67;1176;-72
2021/06/10 09:22:26;;;;;;;;;;;;;;;;;;2127019;67;1505;-70
2021/06/10 09:24:51;;;;;;;;;;;;;;;;;;2126093;67;1236;-71
2021/06/10 09:27:16;;;;;;;;;;;;;;;;;;2126956;67;1155;-69
2021/06/10 09:29:46;;;;;;;;;;;;;;;;;;2127031;67;1185;-68
2021/06/10 09:32:14;;;;;;;;;;;;;;;;;;2126405;59;2216;-70
2021/06/10 09:34:42;;;;;;;;;;;;;;;;;;2130307;66;1269;-72
2021/06/10 09:37:07;;;;;;;;;;;;;;;;;;2127185;67;1218;-68
2021/06/10 09:39:32;;;;;;;;;;;;;;;;;;2126303;67;1218;-70
2021/06/10 09:42:01;;;;;;;;;;;;;;;;;;2127927;67;1175;-72
2021/06/10 09:44:44;;;;;;;;;;;;;;;;;;2126198;59;1588;-70
2021/06/10 09:47:10;;;;;;;;;;;;;;;;;;2126694;59;1291;-72
2021/06/10 09:49:35;;;;;;;;;;;;;;;;;;2127163;67;1278;-68
2021/06/10 09:52:02;;;;;;;;;;;;;;;;;;2127363;67;1925;-69
2021/06/10 09:54:47;;;;;;;;;;;;;;;;;;2127345;67;1228;-68
2021/06/10 09:57:13;;;;;;;;;;;;;;;;;;2127736;67;1162;-69
2021/06/10 09:59:52;;;;;;;;;;;;;;;;;;2127198;67;1075;-70
2021/06/10 10:02:18;;;;;;;;;;;;;;;;;;2127549;67;1156;-71
2021/06/10 10:05:09;;;;;;;;;;;;;;;;;;2127233;67;1223;-69
2021/06/10 10:07:36;;;;;;;;;;;;;;;;;;2126201;67;1308;-70
2021/06/10 10:10:02;;;;;;;;;;;;;;;;;;2126672;67;1377;-72
2021/06/10 10:12:28;;;;;;;;;;;;;;;;;;2126621;66;1988;-69
2021/06/10 10:14:55;;;;;;;;;;;;;;;;;;2126857;59;1303;-70
2021/06/10 10:17:21;;;;;;;;;;;;;;;;;;2126222;67;1181;-72
2021/06/10 10:19:46;;;;;;;;;;;;;;;;;;2127310;67;1227;-71
2021/06/10 10:22:13;;;;;;;;;;;;;;;;;;2126755;67;1222;-70
2021/06/10 10:24:38;;;;;;;;;;;;;;;;;;2127347;67;1200;-71
2021/06/10 10:27:04;;;;;;;;;;;;;;;;;;2126529;67;1387;-71
2021/06/10 10:29:30;;;;;;;;;;;;;;;;;;2125999;59;1302;-69
2021/06/10 10:31:56;;;;;;;;;;;;;;;;;;2126323;67;1918;-70
2021/06/10 10:34:27;;;;;;;;;;;;;;;;;;2126217;67;1208;-70
2021/06/10 10:36:52;;;;;;;;;;;;;;;;;;2126694;67;1183;-70
2021/06/10 10:39:27;;;;;;;;;;;;;;;;;;2127058;67;1137;-69
2021/06/10 10:41:53;;;;;;;;;;;;;;;;;;2126518;67;1071;-70
2021/06/10 10:44:24;;;;;;;;;;;;;;;;;;2127196;67;1242;-68
2021/06/10 10:46:58;;;;;;;;;;;;;;;;;;2126611;59;2352;-69
2021/06/10 10:49:24;;;;;;;;;;;;;;;;;;2128604;66;1299;-70
2021/06/10 10:51:49;;;;;;;;;;;;;;;;;;2125028;67;1917;-70
2021/06/10 10:54:30;;;;;;;;;;;;;;;;;;2126966;59;1247;-70
2021/06/10 10:56:55;;;;;;;;;;;;;;;;;;2126643;67;1151;-71
2021/06/10 10:59:20;;;;;;;;;;;;;;;;;;2127226;67;1166;-72
2021/06/10 11:02:01;;;;;;;;;;;;;;;;;;2126909;67;1170;-73
2021/06/10 11:04:46;;;;;;;;;;;;;;;;;;2127516;67;1192;-71
2021/06/10 11:07:31;;;;;;;;;;;;;;;;;;2127443;59;1417;-71
2021/06/10 11:09:57;;;;;;;;;;;;;;;;;;2125933;67;2151;-69
2021/06/10 11:12:40;;;;;;;;;;;;;;;;;;2126431;67;1983;-69
2021/06/10 11:15:06;;;;;;;;;;;;;;;;;;2125770;59;1195;-67
2021/06/10 11:17:42;;;;;;;;;;;;;;;;;;2125697;67;1229;-69
2021/06/10 11:20:13;;;;;;;;;;;;;;;;;;2125984;59;1133;-69
2021/06/10 11:22:39;;;;;;;;;;;;;;;;;;2127192;67;1090;-69
2021/06/10 11:25:10;;;;;;;;;;;;;;;;;;2125896;67;1226;-68
2021/06/10 11:27:37;;;;;;;;;;;;;;;;;;2126890;67;1139;-67
2021/06/10 11:30:08;;;;;;;;;;;;;;;;;;2125178;67;1308;-68
2021/06/10 11:32:34;;;;;;;;;;;;;;;;;;2125058;67;1933;-68
2021/06/10 11:35:00;;;;;;;;;;;;;;;;;;2127295;66;1276;-69
2021/06/10 11:37:27;;;;;;;;;;;;;;;;;;2126178;67;1238;-69
2021/06/10 11:39:52;;;;;;;;;;;;;;;;;;2126365;67;1052;-69
2021/06/10 11:42:22;;;;;;;;;;;;;;;;;;2127124;67;1158;-68
2021/06/10 11:44:48;;;;;;;;;;;;;;;;;;2126407;59;1230;-67
2021/06/10 11:47:23;;;;;;;;;;;;;;;;;;2127073;67;1288;-68
2021/06/10 11:49:49;;;;;;;;;;;;;;;;;;2127105;66;1265;-68
2021/06/10 11:52:14;;;;;;;;;;;;;;;;;;2125143;67;1933;-68
2021/06/10 11:54:59;;;;;;;;;;;;;;;;;;2126689;67;1232;-69
2021/06/10 11:57:28;;;;;;;;;;;;;;;;;;2126920;67;1144;-68
2021/06/10 11:59:53;;;;;;;;;;;;;;;;;;2127020;67;1102;-67
2021/06/10 12:02:22;;;;;;;;;;;;;;;;;;2125857;67;1139;-68
2021/06/10 12:04:47;;;;;;;;;;;;;;;;;;2126735;66;1180;-68
2021/06/10 12:07:15;;;;;;;;;;;;;;;;;;2126911;67;1166;-68
2021/06/10 12:09:50;;;;;;;;;;;;;;;;;;2125503;67;1382;-68
2021/06/10 12:12:29;;;;;;;;;;;;;;;;;;2126453;67;1914;-68
2021/06/10 12:14:54;;;;;;;;;;;;;;;;;;2126858;59;1282;-67
2021/06/10 12:17:19;;;;;;;;;;;;;;;;;;2126464;67;1137;-68
2021/06/10 12:19:45;;;;;;;;;;;;;;;;;;2126895;67;1253;-68
2021/06/10 12:22:10;;;;;;;;;;;;;;;;;;2122877;59;1466;-68
2021/06/10 12:24:41;;;;;;;;;;;;;;;;;;2126537;67;1261;-68
2021/06/10 12:27:14;;;;;;;;;;;;;;;;;;2125676;67;1166;-68
2021/06/10 12:29:51;;;;;;;;;;;;;;;;;;2126807;59;1314;-68
2021/06/10 12:32:26;;;;;;;;;;;;;;;;;;2126319;67;1979;-68
2021/06/10 12:34:53;;;;;;;;;;;;;;;;;;2126393;67;1272;-68
2021/06/10 12:37:19;;;;;;;;;;;;;;;;;;2126534;67;1261;-67
2021/06/10 12:39:44;;;;;;;;;;;;;;;;;;2126492;67;1079;-68
2021/06/10 12:42:11;;;;;;;;;;;;;;;;;;2126404;67;1187;-68
2021/06/10 12:44:37;;;;;;;;;;;;;;;;;;2126557;59;1264;-67
2021/06/10 12:47:03;;;;;;;;;;;;;;;;;;2126385;67;1120;-68
2021/06/10 12:49:38;;;;;;;;;;;;;;;;;;2126291;67;1351;-67
2021/06/10 12:52:09;;;;;;;;;;;;;;;;;;2126164;67;2000;-68
2021/06/10 12:54:35;;;;;;;;;;;;;;;;;;2126484;67;1283;-68
2021/06/10 12:57:00;;;;;;;;;;;;;;;;;;2126237;67;1162;-69
2021/06/10 12:59:30;;;;;;;;;;;;;;;;;;2126316;67;1121;-68
2021/06/10 13:02:04;;;;;;;;;;;;;;;;;;2126991;67;1198;-68
2021/06/10 13:04:31;;;;;;;;;;;;;;;;;;2126375;67;1152;-68
2021/06/10 13:06:56;;;;;;;;;;;;;;;;;;2126282;59;1404;-67
2021/06/10 13:09:22;;;;;;;;;;;;;;;;;;2127277;67;1275;-68
2021/06/10 13:12:07;;;;;;;;;;;;;;;;;;2126097;67;1929;-70
2021/06/10 13:14:33;;;;;;;;;;;;;;;;;;2126526;67;1193;-69
2021/06/10 13:16:58;;;;;;;;;;;;;;;;;;2127082;59;1521;-69
2021/06/10 13:19:24;;;;;;;;;;;;;;;;;;2126619;67;1163;-68
2021/06/10 13:22:04;;;;;;;;;;;;;;;;;;2127186;67;1171;-68
2021/06/10 13:24:39;;;;;;;;;;;;;;;;;;2126740;67;1707;-68
2021/06/10 13:27:13;;;;;;;;;;;;;;;;;;2126299;67;1366;-67
2021/06/10 13:29:57;;;;;;;;;;;;;;;;;;2126415;67;1214;-69
2021/06/10 13:32:27;;;;;;;;;;;;;;;;;;2125335;67;1964;-68
2021/06/10 13:35:13;;;;;;;;;;;;;;;;;;2126934;67;1713;-68
2021/06/10 13:37:39;;;;;;;;;;;;;;;;;;2125181;67;1225;-69
2021/06/10 13:40:05;;;;;;;;;;;;;;;;;;2126115;59;1238;-68
2021/06/10 13:42:31;;;;;;;;;;;;;;;;;;2127205;67;1099;-69
2021/06/10 13:44:56;;;;;;;;;;;;;;;;;;2126177;59;1289;-68
2021/06/10 13:47:21;;;;;;;;;;;;;;;;;;2125513;59;1295;-69
2021/06/10 13:49:47;;;;;;;;;;;;;;;;;;2126085;67;1114;-68
2021/06/10 13:52:12;;;;;;;;;;;;;;;;;;2127127;67;1929;-68
2021/06/10 13:54:38;;;;;;;;;;;;;;;;;;2125872;67;1234;-69
2021/06/10 13:57:03;;;;;;;;;;;;;;;;;;2125811;67;1189;-68
2021/06/10 13:59:29;;;;;;;;;;;;;;;;;;2126889;67;1171;-70
2021/06/10 14:01:54;;;;;;;;;;;;;;;;;;2126063;67;1230;-66
2021/06/10 14:04:19;;;;;;;;;;;;;;;;;;2126556;67;1189;-66
2021/06/10 14:06:44;;;;;;;;;;;;;;;;;;2126693;67;1265;-68
2021/06/10 14:09:09;;;;;;;;;;;;;;;;;;2125909;67;1163;-67
2021/06/10 14:11:34;;;;;;;;;;;;;;;;;;2125886;67;1987;-67
2021/06/10 14:14:00;;;;;;;;;;;;;;;;;;2126989;67;1186;-68
2021/06/10 14:16:26;;;;;;;;;;;;;;;;;;2126162;59;4349;-68
2021/06/10 14:18:52;;;;;;;;;;;;;;;;;;2125378;67;1293;-67
2021/06/10 14:21:22;;;;;;;;;;;;;;;;;;2125828;67;1213;-67
2021/06/10 14:23:48;;;;;;;;;;;;;;;;;;2127521;66;1172;-67
2021/06/10 14:26:13;;;;;;;;;;;;;;;;;;2127129;67;1284;-67
2021/06/10 14:28:40;;;;;;;;;;;;;;;;;;2126862;59;1369;-67
2021/06/10 14:33:49;;;;;;;;;;;;;;;;;;2126113;59;1001;-67
2021/06/10 14:36:14;;;;;;;;;;;;;;;;;;2126774;67;1212;-67
2021/06/10 14:38:39;;;;;;;;;;;;;;;;;;2125649;67;1197;-67
2021/06/10 14:41:04;;;;;;;;;;;;;;;;;;2126676;67;1171;-67
2021/06/10 14:43:30;;;;;;;;;;;;;;;;;;2127490;67;1176;-66
2021/06/10 14:45:55;;;;;;;;;;;;;;;;;;2126580;59;1265;-67
2021/06/10 14:48:21;;;;;;;;;;;;;;;;;;2126773;67;1210;-67
2021/06/10 14:50:46;;;;;;;;;;;;;;;;;;2126278;67;1978;-66
2021/06/10 14:53:11;;;;;;;;;;;;;;;;;;2126922;67;1182;-67
2021/06/10 14:55:36;;;;;;;;;;;;;;;;;;2126973;67;1282;-66
2021/06/10 14:58:05;;;;;;;;;;;;;;;;;;2127714;67;1088;-68
2021/06/10 15:00:31;;;;;;;;;;;;;;;;;;2126205;67;1224;-66
2021/06/10 15:02:56;;;;;;;;;;;;;;;;;;2126595;67;1154;-67
2021/06/10 15:05:22;;;;;;;;;;;;;;;;;;2127269;67;1203;-68
2021/06/10 15:07:47;;;;;;;;;;;;;;;;;;2127212;59;1275;-68
2021/06/10 15:10:12;;;;;;;;;;;;;;;;;;2126496;67;1164;-68
2021/06/10 15:12:38;;;;;;;;;;;;;;;;;;2126971;67;1939;-67
2021/06/10 15:15:04;;;;;;;;;;;;;;;;;;2126558;59;1348;-67
2021/06/10 15:17:29;;;;;;;;;;;;;;;;;;2127177;67;1169;-68
2021/06/10 15:19:54;;;;;;;;;;;;;;;;;;2126839;67;1217;-68
2021/06/10 15:22:19;;;;;;;;;;;;;;;;;;2126566;67;1269;-66
2021/06/10 15:24:44;;;;;;;;;;;;;;;;;;2127337;67;1930;-68
2021/06/10 15:27:10;;;;;;;;;;;;;;;;;;2126207;67;1164;-66
2021/06/10 15:29:35;;;;;;;;;;;;;;;;;;2127524;67;1241;-67
2021/06/10 15:32:01;;;;;;;;;;;;;;;;;;2125795;67;1943;-67
2021/06/10 15:34:26;;;;;;;;;;;;;;;;;;2126107;66;1237;-66
2021/06/10 15:36:51;;;;;;;;;;;;;;;;;;2126756;67;1227;-67
2021/06/10 15:39:16;;;;;;;;;;;;;;;;;;2127434;67;1194;-67
2021/06/10 15:41:42;;;;;;;;;;;;;;;;;;2126703;67;1144;-67
2021/06/10 15:44:07;;;;;;;;;;;;;;;;;;2127174;67;1245;-66
2021/06/10 15:46:33;;;;;;;;;;;;;;;;;;2127104;59;1242;-67
2021/06/10 15:48:59;;;;;;;;;;;;;;;;;;2125502;59;1376;-68
2021/06/10 15:51:24;;;;;;;;;;;;;;;;;;2126367;67;1986;-68
2021/06/10 15:53:49;;;;;;;;;;;;;;;;;;2126614;66;1170;-67
2021/06/10 15:56:14;;;;;;;;;;;;;;;;;;2126053;67;1248;-67
2021/06/10 15:58:40;;;;;;;;;;;;;;;;;;2127001;67;1211;-67
2021/06/10 16:01:06;;;;;;;;;;;;;;;;;;2126837;67;1167;-67
2021/06/10 16:03:31;;;;;;;;;;;;;;;;;;2127097;67;1182;-66
2021/06/10 16:05:57;;;;;;;;;;;;;;;;;;2127054;67;1241;-67
2021/06/10 16:08:23;;;;;;;;;;;;;;;;;;2126750;67;1234;-67
2021/06/10 16:10:49;;;;;;;;;;;;;;;;;;2126035;67;1925;-67
2021/06/10 16:13:14;;;;;;;;;;;;;;;;;;2127679;67;1210;-67
2021/06/10 16:15:40;;;;;;;;;;;;;;;;;;2126907;59;1254;-67
2021/06/10 16:18:06;;;;;;;;;;;;;;;;;;2127096;67;1169;-67
2021/06/10 16:20:33;;;;;;;;;;;;;;;;;;2126677;67;1233;-67
2021/06/10 16:22:59;;;;;;;;;;;;;;;;;;2126607;67;1207;-67
2021/06/10 16:25:24;;;;;;;;;;;;;;;;;;2126835;67;1199;-67
2021/06/10 16:27:49;;;;;;;;;;;;;;;;;;2126481;59;1162;-67
2021/06/10 16:30:18;;;;;;;;;;;;;;;;;;2126670;59;1536;-68
2021/06/10 16:32:43;;;;;;;;;;;;;;;;;;2126452;67;1932;-67
2021/06/10 16:35:11;;;;;;;;;;;;;;;;;;2126799;66;1221;-66
2021/06/10 16:37:37;;;;;;;;;;;;;;;;;;2126497;67;1225;-68
2021/06/10 16:40:03;;;;;;;;;;;;;;;;;;2126597;67;1163;-68
2021/06/10 16:42:28;;;;;;;;;;;;;;;;;;2127059;67;1155;-68
2021/06/10 16:44:53;;;;;;;;;;;;;;;;;;2126518;59;2392;-68
2021/06/10 16:47:19;;;;;;;;;;;;;;;;;;2126954;59;1347;-69
2021/06/10 16:49:44;;;;;;;;;;;;;;;;;;2126079;59;1237;-68
2021/06/10 16:52:09;;;;;;;;;;;;;;;;;;2125999;67;1993;-68
2021/06/10 16:54:34;;;;;;;;;;;;;;;;;;2127016;59;1291;-65
2021/06/10 16:57:00;;;;;;;;;;;;;;;;;;2124200;67;1083;-66
2021/06/10 16:59:26;;;;;;;;;;;;;;;;;;2126702;67;1069;-69
2021/06/10 17:04:17;;;;;;;;;;;;;;;;;;2126641;59;1201;-67
2021/06/10 17:06:50;;;;;;;;;;;;;;;;;;2125407;59;1278;-67